Terminal Aerodrome Forecast
Issued by NWS

Home | Current Version | Previous Version | Text Only | Print | Product List | Glossary On
Versions: 1 2 3 4 5 6 7 8 9 10 11 12 13 14
000
FTUS45 KABQ 272300
TAFFMN
TAF
KFMN 272340Z 2800/2824 10010KT P6SM VCTS BKN080CB BKN110
      TEMPO 2800/2802 VRB15G25KT 6SM -TSRA BKN070CB
     FM280300 09009KT P6SM VCSH OVC080
     FM281000 09009KT P6SM BKN090
     FM281600 15010KT P6SM FEW070 SCT120
     FM282200 21010KT P6SM VCTS SCT070CB BKN120=

USA.gov is the U.S. government's official web portal to all federal, state and local government web resources and services.